createdAt,value
2023-05-20T00:01:53.511Z,13.78
2023-05-20T00:04:20.918Z,13.99
2023-05-20T00:06:48.447Z,13.94
2023-05-20T00:09:17.301Z,14.21
2023-05-20T00:11:46.251Z,13.89
2023-05-20T00:14:13.480Z,14.00
2023-05-20T00:16:41.948Z,14.13
2023-05-20T00:19:09.452Z,14.02
2023-05-20T00:21:36.853Z,13.95
2023-05-20T00:24:04.229Z,13.94
2023-05-20T00:26:31.482Z,13.83
2023-05-20T00:28:59.241Z,13.87
2023-05-20T00:31:26.595Z,14.27
2023-05-20T00:33:53.880Z,14.03
2023-05-20T00:36:21.210Z,14.01
2023-05-20T00:38:48.585Z,14.06
2023-05-20T00:41:15.771Z,14.10
2023-05-20T00:43:43.112Z,14.12
2023-05-20T00:46:10.578Z,13.88
2023-05-20T00:48:41.678Z,13.93
2023-05-20T00:51:11.074Z,14.20
2023-05-20T00:53:38.783Z,14.09
2023-05-20T00:56:06.782Z,14.05
2023-05-20T00:58:36.708Z,13.64
2023-05-20T01:01:06.158Z,13.71
2023-05-20T01:03:33.857Z,13.76
2023-05-20T01:06:02.859Z,14.04
2023-05-20T01:08:30.289Z,13.85
2023-05-20T01:11:04.793Z,13.62
2023-05-20T01:13:43.928Z,13.97
2023-05-20T01:16:12.036Z,13.73
2023-05-20T01:18:41.064Z,13.63
2023-05-20T01:21:11.737Z,13.69
2023-05-20T01:23:40.562Z,13.60
2023-05-20T01:26:09.278Z,13.48
2023-05-20T01:28:38.743Z,13.52
2023-05-20T01:31:12.661Z,13.54
2023-05-20T01:33:41.227Z,13.69
2023-05-20T01:36:10.038Z,13.71
2023-05-20T01:38:40.196Z,13.46
2023-05-20T01:41:07.495Z,13.27
2023-05-20T01:43:35.257Z,13.40
2023-05-20T01:46:06.258Z,13.30
2023-05-20T01:48:34.670Z,13.40
2023-05-20T01:51:02.045Z,13.44
2023-05-20T01:53:29.623Z,13.38
2023-05-20T01:55:56.840Z,13.28
2023-05-20T01:58:24.189Z,13.13
2023-05-20T02:00:51.700Z,13.03
2023-05-20T02:03:19.265Z,13.23
2023-05-20T02:05:46.790Z,13.39
2023-05-20T02:08:14.085Z,13.43
2023-05-20T02:10:41.507Z,13.37
2023-05-20T02:13:09.497Z,13.08
2023-05-20T02:15:41.619Z,13.23
2023-05-20T02:18:09.055Z,13.46
2023-05-20T02:20:37.224Z,13.27
2023-05-20T02:23:07.580Z,12.90
2023-05-20T02:25:35.217Z,12.95
2023-05-20T02:28:05.867Z,13.09
2023-05-20T02:30:33.122Z,12.79
2023-05-20T02:33:00.383Z,12.96
2023-05-20T02:35:27.758Z,12.91
2023-05-20T02:37:55.095Z,13.10
2023-05-20T02:40:22.992Z,12.86
2023-05-20T02:42:50.656Z,12.83
2023-05-20T02:45:17.950Z,13.06
2023-05-20T02:47:46.252Z,13.01
2023-05-20T02:50:13.709Z,12.63
2023-05-20T02:52:42.528Z,12.67
2023-05-20T02:55:10.185Z,12.88
2023-05-20T02:57:41.045Z,12.73
2023-05-20T03:00:13.367Z,12.61
2023-05-20T03:02:40.813Z,12.62
2023-05-20T03:05:09.401Z,12.73
2023-05-20T03:07:36.835Z,12.85
2023-05-20T03:10:08.045Z,12.75
2023-05-20T03:12:35.333Z,12.78
2023-05-20T03:15:03.839Z,12.54
2023-05-20T03:17:31.345Z,12.61
2023-05-20T03:19:58.847Z,12.62
2023-05-20T03:22:26.239Z,12.48
2023-05-20T03:24:53.641Z,12.35
2023-05-20T03:27:21.476Z,12.44
2023-05-20T03:29:48.940Z,12.65
2023-05-20T03:32:17.354Z,12.88
2023-05-20T03:34:44.664Z,12.73
2023-05-20T03:37:12.146Z,12.92
2023-05-20T03:39:39.534Z,12.64
2023-05-20T03:42:07.826Z,12.78
2023-05-20T03:44:36.005Z,12.78
2023-05-20T03:47:03.455Z,12.94
2023-05-20T03:49:31.653Z,12.66
2023-05-20T03:51:59.121Z,12.64
2023-05-20T03:54:26.704Z,12.77
2023-05-20T03:56:54.843Z,12.80
2023-05-20T03:59:22.427Z,12.78
2023-05-20T04:01:49.810Z,12.47
2023-05-20T04:04:17.292Z,12.55
2023-05-20T04:06:44.637Z,12.61
2023-05-20T04:09:12.607Z,12.58
2023-05-20T04:11:39.925Z,12.89
2023-05-20T04:14:07.422Z,12.93
2023-05-20T04:16:35.089Z,13.01
2023-05-20T04:19:02.814Z,13.12
2023-05-20T04:21:31.452Z,12.90
2023-05-20T04:23:58.866Z,12.72
2023-05-20T04:26:26.254Z,12.86
2023-05-20T04:28:53.623Z,12.81
2023-05-20T04:31:26.695Z,12.84
2023-05-20T04:33:54.582Z,13.00
2023-05-20T04:36:22.948Z,13.11
2023-05-20T04:38:50.774Z,13.30
2023-05-20T04:41:18.542Z,12.95
2023-05-20T04:43:45.995Z,12.77
2023-05-20T04:46:14.202Z,12.77
2023-05-20T04:48:43.982Z,12.54
2023-05-20T04:51:13.711Z,12.66
2023-05-20T04:53:40.998Z,12.40
2023-05-20T04:56:08.250Z,12.36
2023-05-20T04:58:35.571Z,12.35
2023-05-20T05:01:03.348Z,12.43
2023-05-20T05:03:31.300Z,12.24
2023-05-20T05:05:59.213Z,12.57
2023-05-20T05:08:27.142Z,12.59
2023-05-20T05:10:54.720Z,12.61
2023-05-20T05:13:22.090Z,12.40
2023-05-20T05:15:49.515Z,12.30
2023-05-20T05:18:18.659Z,12.50
2023-05-20T05:20:46.503Z,12.36
2023-05-20T05:23:14.218Z,12.62
2023-05-20T05:25:41.992Z,12.61
2023-05-20T05:28:09.346Z,12.57
2023-05-20T05:30:37.652Z,12.65
2023-05-20T05:33:04.962Z,12.93
2023-05-20T05:35:32.906Z,13.08
2023-05-20T05:38:00.564Z,12.87
2023-05-20T05:40:27.965Z,12.60
2023-05-20T05:42:55.441Z,12.60
2023-05-20T05:45:22.855Z,12.76
2023-05-20T05:47:50.177Z,12.80
2023-05-20T05:50:17.630Z,12.80
2023-05-20T05:52:44.923Z,12.81
2023-05-20T05:55:12.906Z,12.80
2023-05-20T05:57:40.281Z,13.06
2023-05-20T06:00:08.812Z,12.91
2023-05-20T06:02:46.204Z,12.75
2023-05-20T06:05:20.507Z,12.98
2023-05-20T06:07:48.073Z,13.00
2023-05-20T06:10:15.575Z,12.87
2023-05-20T06:12:42.803Z,12.86
2023-05-20T06:15:10.744Z,12.94
2023-05-20T06:17:38.769Z,13.08
2023-05-20T06:20:07.025Z,13.38
2023-05-20T06:22:35.077Z,13.04
2023-05-20T06:25:02.601Z,13.36
2023-05-20T06:27:31.417Z,13.58
2023-05-20T06:29:58.689Z,13.79
2023-05-20T06:32:25.928Z,13.64
2023-05-20T06:34:53.844Z,13.73
2023-05-20T06:37:24.326Z,13.80
2023-05-20T06:39:53.938Z,13.58
2023-05-20T06:42:21.797Z,13.14
2023-05-20T06:45:03.077Z,13.23
2023-05-20T06:47:49.950Z,13.39
2023-05-20T06:50:17.289Z,13.65
2023-05-20T06:52:45.245Z,13.53
2023-05-20T06:55:13.635Z,13.33
2023-05-20T06:57:41.117Z,13.30
2023-05-20T07:00:09.479Z,13.51
2023-05-20T07:02:42.528Z,13.66
2023-05-20T07:05:12.040Z,13.86
2023-05-20T07:07:39.908Z,13.95
2023-05-20T07:10:08.050Z,13.39
2023-05-20T07:12:36.789Z,13.39
2023-05-20T07:15:05.070Z,13.75
2023-05-20T07:17:33.056Z,13.97
2023-05-20T07:20:00.464Z,14.07
2023-05-20T07:22:27.929Z,14.52
2023-05-20T07:25:09.170Z,14.63
2023-05-20T07:27:37.605Z,14.35
2023-05-20T07:30:05.846Z,14.46
2023-05-20T07:32:34.281Z,14.01
2023-05-20T07:35:01.812Z,14.05
2023-05-20T07:37:29.156Z,13.99
2023-05-20T07:39:56.663Z,14.32
2023-05-20T07:42:24.056Z,14.29
2023-05-20T07:44:56.030Z,14.21
2023-05-20T07:47:23.527Z,14.11
2023-05-20T07:49:50.850Z,14.50
2023-05-20T07:52:18.205Z,14.44
2023-05-20T07:54:45.998Z,14.12
2023-05-20T07:57:13.453Z,14.43
2023-05-20T07:59:41.511Z,14.95
2023-05-20T08:02:08.950Z,14.78
2023-05-20T08:04:37.020Z,14.56
2023-05-20T08:07:04.744Z,15.01
2023-05-20T08:09:41.662Z,15.32
2023-05-20T08:12:09.087Z,15.02
2023-05-20T08:14:36.441Z,15.06
2023-05-20T08:17:04.210Z,15.62
2023-05-20T08:19:31.892Z,15.82
2023-05-20T08:21:59.244Z,15.57
2023-05-20T08:24:27.120Z,15.69
2023-05-20T08:26:55.175Z,15.63
2023-05-20T08:29:25.043Z,16.10
2023-05-20T08:31:52.534Z,15.87
2023-05-20T08:34:21.070Z,15.85
2023-05-20T08:36:48.325Z,15.78
2023-05-20T08:39:15.872Z,15.90
2023-05-20T08:41:43.448Z,15.94
2023-05-20T08:44:11.840Z,15.59
2023-05-20T08:46:40.897Z,15.93
2023-05-20T08:49:08.908Z,15.89
2023-05-20T08:51:36.736Z,15.93
2023-05-20T08:54:04.175Z,16.13
2023-05-20T08:56:32.857Z,16.16
2023-05-20T08:59:00.169Z,16.08
2023-05-20T09:01:27.536Z,16.33
2023-05-20T09:03:54.825Z,16.26
2023-05-20T09:06:22.249Z,16.46
2023-05-20T09:08:50.786Z,16.62
2023-05-20T09:11:18.349Z,16.89
2023-05-20T09:13:45.697Z,16.62
2023-05-20T09:16:13.594Z,16.62
2023-05-20T09:18:41.733Z,16.71
2023-05-20T09:21:10.324Z,16.75
2023-05-20T09:23:38.486Z,16.79
2023-05-20T09:26:06.165Z,17.01
2023-05-20T09:28:33.836Z,16.88
2023-05-20T09:31:01.558Z,16.84
2023-05-20T09:33:30.371Z,17.14
2023-05-20T09:36:04.770Z,17.14
2023-05-20T09:38:38.063Z,17.14
2023-05-20T09:41:13.121Z,17.37
2023-05-20T09:43:40.857Z,17.52
2023-05-20T09:46:08.690Z,17.48
2023-05-20T09:48:39.959Z,17.58
2023-05-20T09:51:08.046Z,17.60
2023-05-20T09:53:36.148Z,17.67
2023-05-20T09:56:04.172Z,17.88
2023-05-20T09:58:33.910Z,17.97
2023-05-20T10:01:01.925Z,17.55
2023-05-20T10:03:30.047Z,17.59
2023-05-20T10:06:20.425Z,17.78
2023-05-20T10:09:12.977Z,17.76
2023-05-20T10:12:04.942Z,17.76
2023-05-20T10:14:57.599Z,17.76
2023-05-20T10:17:43.807Z,17.94
2023-05-20T10:20:13.921Z,17.89
2023-05-20T10:22:41.279Z,18.13
2023-05-20T10:25:12.998Z,18.21
2023-05-20T10:27:47.445Z,18.31
2023-05-20T10:30:19.922Z,18.47
2023-05-20T10:33:00.722Z,18.24
2023-05-20T10:35:28.771Z,18.46
2023-05-20T10:38:08.334Z,18.54
2023-05-20T10:40:36.345Z,18.45
2023-05-20T10:43:11.698Z,18.44
2023-05-20T10:45:52.991Z,18.26
2023-05-20T10:48:25.496Z,18.48
2023-05-20T10:51:06.145Z,18.69
2023-05-20T10:53:41.164Z,18.58
2023-05-20T10:56:18.996Z,18.77
2023-05-20T10:58:46.638Z,18.44
2023-05-20T11:01:14.609Z,18.47
2023-05-20T11:03:44.073Z,18.47
2023-05-20T11:06:17.569Z,18.88
2023-05-20T11:08:46.339Z,19.00
2023-05-20T11:11:15.383Z,18.82
2023-05-20T11:13:42.782Z,18.88
2023-05-20T11:16:10.231Z,19.07
2023-05-20T11:18:37.479Z,19.20
2023-05-20T11:21:04.831Z,19.18
2023-05-20T11:23:32.378Z,19.11
2023-05-20T11:25:59.816Z,19.27
2023-05-20T11:28:27.292Z,19.37
2023-05-20T11:30:55.421Z,19.47
2023-05-20T11:33:26.653Z,19.54
2023-05-20T11:35:54.402Z,19.64
2023-05-20T11:38:22.047Z,19.66
2023-05-20T11:40:54.433Z,19.32
2023-05-20T11:43:23.554Z,19.41
2023-05-20T11:45:56.200Z,19.52
2023-05-20T11:48:24.045Z,19.46
2023-05-20T11:50:53.688Z,19.41
2023-05-20T11:53:22.786Z,19.46
2023-05-20T11:55:55.355Z,19.54
2023-05-20T11:58:24.467Z,19.59
2023-05-20T12:00:59.142Z,19.77
2023-05-20T12:03:29.713Z,19.92
2023-05-20T12:05:57.081Z,19.82
2023-05-20T12:08:24.547Z,20.00
2023-05-20T12:10:52.040Z,19.73
2023-05-20T12:13:19.603Z,19.93
2023-05-20T12:15:47.185Z,20.02
2023-05-20T12:18:14.721Z,20.16
2023-05-20T12:20:42.924Z,20.00
2023-05-20T12:23:10.441Z,20.23
2023-05-20T12:25:37.779Z,20.23
2023-05-20T12:28:05.276Z,20.47
2023-05-20T12:30:32.803Z,20.21
2023-05-20T12:33:00.259Z,20.28
2023-05-20T12:35:46.809Z,20.35
2023-05-20T12:38:14.114Z,20.46
2023-05-20T12:40:41.438Z,20.05
2023-05-20T12:43:09.249Z,19.92
2023-05-20T12:45:36.524Z,20.11
2023-05-20T12:48:04.863Z,20.29
2023-05-20T12:50:32.292Z,20.33
2023-05-20T12:52:59.937Z,20.35
2023-05-20T12:55:27.389Z,20.22
2023-05-20T12:57:56.293Z,20.48
2023-05-20T13:00:23.710Z,20.54
2023-05-20T13:02:52.443Z,20.32
2023-05-20T13:05:20.479Z,20.35
2023-05-20T13:07:49.039Z,20.22
2023-05-20T13:10:17.921Z,20.36
2023-05-20T13:12:46.045Z,20.32
2023-05-20T13:15:14.674Z,20.36
2023-05-20T13:17:42.762Z,20.65
2023-05-20T13:20:11.078Z,20.78
2023-05-20T13:22:38.457Z,20.54
2023-05-20T13:25:06.716Z,20.38
2023-05-20T13:27:33.983Z,20.38
2023-05-20T13:30:01.909Z,20.68
2023-05-20T13:32:29.245Z,20.81
2023-05-20T13:34:57.105Z,20.86
2023-05-20T13:37:24.458Z,20.50
2023-05-20T13:39:51.889Z,20.66
2023-05-20T13:42:19.261Z,20.73
2023-05-20T13:44:46.838Z,20.52
2023-05-20T13:47:14.238Z,20.68
2023-05-20T13:49:41.573Z,20.48
2023-05-20T13:52:09.210Z,20.54
2023-05-20T13:54:36.745Z,20.53
2023-05-20T13:57:08.090Z,20.60
2023-05-20T13:59:35.512Z,20.47
2023-05-20T14:02:03.163Z,20.70
2023-05-20T14:04:39.403Z,20.54
2023-05-20T14:07:09.362Z,20.91
2023-05-20T14:09:37.333Z,21.00
2023-05-20T14:12:05.805Z,20.92
2023-05-20T14:14:33.216Z,20.72
2023-05-20T14:17:00.476Z,20.59
2023-05-20T14:19:27.798Z,20.63
2023-05-20T14:21:55.296Z,20.54
2023-05-20T14:24:23.773Z,20.52
2023-05-20T14:26:51.329Z,20.45
2023-05-20T14:29:18.786Z,20.53
2023-05-20T14:31:46.380Z,20.57
2023-05-20T14:34:13.854Z,20.23
2023-05-20T14:36:41.205Z,20.32
2023-05-20T14:39:08.498Z,20.47
2023-05-20T14:41:36.728Z,20.75
2023-05-20T14:44:04.059Z,20.62
2023-05-20T14:46:31.597Z,20.89
2023-05-20T14:48:58.845Z,20.60
2023-05-20T14:51:26.300Z,20.43
2023-05-20T14:53:53.767Z,20.62
2023-05-20T14:56:21.622Z,20.61
2023-05-20T14:58:48.887Z,20.72
2023-05-20T15:01:16.272Z,20.84
2023-05-20T15:03:43.663Z,21.11
2023-05-20T15:06:11.070Z,21.08
2023-05-20T15:08:38.521Z,20.85
2023-05-20T15:11:05.812Z,20.84
2023-05-20T15:13:33.093Z,21.14
2023-05-20T15:16:00.593Z,21.19
2023-05-20T15:18:27.893Z,20.89
2023-05-20T15:20:55.394Z,20.75
2023-05-20T15:23:22.715Z,21.03
2023-05-20T15:25:50.390Z,20.78
2023-05-20T15:28:19.773Z,20.73
2023-05-20T15:30:53.081Z,20.63
2023-05-20T15:33:21.346Z,20.65
2023-05-20T15:35:49.103Z,20.57
2023-05-20T15:38:17.542Z,20.77
2023-05-20T15:40:44.882Z,20.73
2023-05-20T15:43:12.110Z,20.76
2023-05-20T15:45:39.405Z,20.68
2023-05-20T15:48:07.198Z,20.59
2023-05-20T15:50:38.078Z,20.49
2023-05-20T15:53:09.552Z,20.47
2023-05-20T15:55:36.863Z,20.46
2023-05-20T15:58:04.308Z,20.65
2023-05-20T16:00:31.721Z,20.77
2023-05-20T16:02:59.357Z,20.63
2023-05-20T16:05:26.914Z,20.92
2023-05-20T16:07:55.208Z,20.96
2023-05-20T16:10:25.317Z,21.02
2023-05-20T16:12:53.416Z,20.98
2023-05-20T16:15:21.008Z,21.05
2023-05-20T16:17:48.394Z,21.11
2023-05-20T16:20:15.790Z,20.97
2023-05-20T16:22:43.081Z,20.70
2023-05-20T16:25:14.231Z,20.73
2023-05-20T16:27:41.582Z,20.61
2023-05-20T16:30:09.613Z,20.81
2023-05-20T16:32:37.075Z,21.04
2023-05-20T16:35:05.308Z,20.72
2023-05-20T16:37:33.054Z,20.76
2023-05-20T16:40:00.675Z,20.57
2023-05-20T16:42:28.130Z,20.48
2023-05-20T16:44:55.636Z,20.44
2023-05-20T16:47:22.928Z,20.34
2023-05-20T16:49:50.187Z,20.44
2023-05-20T16:52:17.623Z,20.70
2023-05-20T16:54:45.068Z,20.50
2023-05-20T16:57:14.105Z,20.53
2023-05-20T16:59:41.858Z,20.51
2023-05-20T17:02:09.107Z,20.52
2023-05-20T17:04:36.786Z,20.34
2023-05-20T17:07:04.246Z,20.41
2023-05-20T17:09:31.581Z,20.33
2023-05-20T17:11:58.845Z,20.28
2023-05-20T17:14:26.148Z,20.21
2023-05-20T17:16:53.528Z,20.25
2023-05-20T17:19:21.102Z,20.19
2023-05-20T17:21:48.627Z,20.28
2023-05-20T17:24:16.093Z,20.13
2023-05-20T17:26:43.437Z,20.25
2023-05-20T17:29:10.929Z,20.37
2023-05-20T17:31:38.330Z,20.38
2023-05-20T17:34:05.801Z,20.21
2023-05-20T17:36:33.128Z,20.22
2023-05-20T17:39:00.767Z,20.31
2023-05-20T17:41:28.155Z,20.29
2023-05-20T17:43:55.596Z,20.21
2023-05-20T17:46:23.148Z,20.22
2023-05-20T17:48:50.592Z,20.34
2023-05-20T17:51:17.884Z,20.46
2023-05-20T17:53:45.736Z,20.13
2023-05-20T17:56:13.580Z,20.21
2023-05-20T17:58:41.038Z,20.34
2023-05-20T18:01:09.710Z,20.20
2023-05-20T18:03:37.499Z,20.15
2023-05-20T18:06:06.168Z,20.08
2023-05-20T18:08:33.931Z,20.10
2023-05-20T18:11:01.521Z,20.11
2023-05-20T18:13:28.899Z,20.21
2023-05-20T18:15:56.386Z,20.21
2023-05-20T18:18:23.784Z,20.09
2023-05-20T18:20:51.058Z,19.97
2023-05-20T18:23:18.375Z,20.02
2023-05-20T18:25:45.856Z,20.17
2023-05-20T18:28:13.417Z,20.25
2023-05-20T18:30:40.899Z,20.27
2023-05-20T18:33:08.287Z,20.25
2023-05-20T18:35:35.599Z,20.01
2023-05-20T18:38:02.978Z,20.04
2023-05-20T18:40:30.459Z,20.06
2023-05-20T18:42:58.324Z,19.80
2023-05-20T18:45:26.008Z,19.70
2023-05-20T18:47:54.402Z,19.74
2023-05-20T18:50:21.893Z,19.94
2023-05-20T18:52:49.217Z,19.88
2023-05-20T18:55:16.880Z,19.97
2023-05-20T18:57:44.192Z,20.13
2023-05-20T19:00:12.639Z,20.17
2023-05-20T19:02:40.585Z,20.00
2023-05-20T19:05:08.872Z,19.80
2023-05-20T19:07:36.987Z,19.64
2023-05-20T19:10:05.441Z,19.69
2023-05-20T19:12:33.548Z,19.77
2023-05-20T19:15:01.431Z,19.87
2023-05-20T19:17:29.606Z,19.71
2023-05-20T19:19:57.141Z,19.87
2023-05-20T19:22:24.482Z,19.89
2023-05-20T19:24:51.839Z,19.82
2023-05-20T19:27:19.140Z,19.87
2023-05-20T19:29:46.650Z,19.61
2023-05-20T19:32:14.064Z,19.72
2023-05-20T19:34:41.321Z,19.50
2023-05-20T19:37:08.749Z,19.53
2023-05-20T19:39:36.402Z,19.49
2023-05-20T19:42:03.982Z,19.53
2023-05-20T19:44:31.235Z,19.30
2023-05-20T19:46:58.599Z,19.25
2023-05-20T19:49:26.064Z,19.34
2023-05-20T19:51:53.413Z,19.36
2023-05-20T19:54:20.989Z,19.27
2023-05-20T19:56:48.300Z,19.32
2023-05-20T19:59:15.935Z,19.17
2023-05-20T20:01:43.305Z,19.07
2023-05-20T20:04:10.704Z,19.13
2023-05-20T20:06:38.222Z,19.30
2023-05-20T20:09:05.771Z,19.16
2023-05-20T20:11:33.084Z,19.19
2023-05-20T20:14:00.391Z,19.30
2023-05-20T20:16:27.744Z,19.45
2023-05-20T20:18:55.248Z,19.61
2023-05-20T20:21:25.748Z,19.36
2023-05-20T20:23:53.391Z,19.41
2023-05-20T20:26:23.567Z,19.35
2023-05-20T20:28:50.776Z,19.11
2023-05-20T20:31:18.081Z,18.87
2023-05-20T20:33:45.502Z,18.76
2023-05-20T20:36:12.753Z,18.82
2023-05-20T20:38:40.115Z,18.90
2023-05-20T20:41:09.573Z,18.67
2023-05-20T20:43:38.229Z,18.76
2023-05-20T20:46:06.366Z,18.75
2023-05-20T20:48:34.556Z,18.65
2023-05-20T20:51:02.103Z,18.62
2023-05-20T20:53:29.462Z,18.71
2023-05-20T20:55:57.027Z,18.72
2023-05-20T20:58:24.454Z,18.69
2023-05-20T21:00:53.119Z,18.86
2023-05-20T21:03:23.979Z,18.61
2023-05-20T21:05:51.835Z,18.69
2023-05-20T21:08:22.047Z,18.70
2023-05-20T21:10:49.252Z,18.70
2023-05-20T21:13:16.472Z,18.41
2023-05-20T21:15:46.403Z,18.59
2023-05-20T21:18:16.530Z,18.49
2023-05-20T21:20:43.795Z,18.46
2023-05-20T21:23:11.391Z,18.45
2023-05-20T21:25:38.773Z,18.46
2023-05-20T21:28:06.520Z,18.52
2023-05-20T21:30:33.801Z,18.32
2023-05-20T21:33:01.149Z,18.24
2023-05-20T21:35:28.482Z,18.26
2023-05-20T21:37:55.820Z,18.37
2023-05-20T21:40:23.230Z,18.21
2023-05-20T21:42:50.755Z,18.42
2023-05-20T21:45:18.536Z,18.24
2023-05-20T21:47:46.434Z,18.30
2023-05-20T21:50:13.877Z,18.50
2023-05-20T21:52:41.551Z,18.18
2023-05-20T21:55:12.075Z,18.03
2023-05-20T21:57:39.421Z,17.75
2023-05-20T22:00:10.457Z,17.72
2023-05-20T22:02:38.175Z,17.60
2023-05-20T22:05:06.575Z,17.57
2023-05-20T22:07:33.993Z,17.28
2023-05-20T22:10:02.367Z,17.22
2023-05-20T22:12:29.826Z,17.34
2023-05-20T22:14:57.100Z,17.15
2023-05-20T22:17:24.868Z,17.15
2023-05-20T22:19:53.577Z,17.28
2023-05-20T22:22:20.846Z,17.31
2023-05-20T22:24:48.126Z,17.23
2023-05-20T22:27:15.446Z,17.15
2023-05-20T22:29:42.796Z,17.09
2023-05-20T22:32:10.106Z,16.94
2023-05-20T22:34:38.513Z,16.92
2023-05-20T22:37:07.090Z,17.04
2023-05-20T22:39:34.488Z,16.94
2023-05-20T22:42:01.710Z,16.77
2023-05-20T22:44:28.987Z,16.65
2023-05-20T22:46:56.435Z,16.65
2023-05-20T22:49:23.912Z,16.89
2023-05-20T22:51:52.840Z,16.81
2023-05-20T22:54:20.162Z,16.63
2023-05-20T22:56:47.450Z,16.72
2023-05-20T22:59:14.876Z,16.61
2023-05-20T23:01:42.300Z,16.62
2023-05-20T23:04:09.794Z,16.83
2023-05-20T23:06:38.254Z,16.98
2023-05-20T23:09:06.172Z,17.03
2023-05-20T23:11:33.472Z,17.11
2023-05-20T23:14:00.886Z,16.60
2023-05-20T23:16:29.551Z,16.67
2023-05-20T23:18:56.946Z,16.67
2023-05-20T23:21:24.274Z,16.89
2023-05-20T23:23:51.705Z,16.66
2023-05-20T23:26:19.014Z,16.62
2023-05-20T23:28:46.261Z,16.41
2023-05-20T23:31:14.798Z,16.50
2023-05-20T23:33:42.177Z,16.64
2023-05-20T23:36:09.643Z,16.36
2023-05-20T23:38:37.470Z,16.56
2023-05-20T23:41:04.912Z,16.74
2023-05-20T23:43:32.131Z,16.44
2023-05-20T23:45:59.542Z,16.40
2023-05-20T23:48:27.674Z,16.51
2023-05-20T23:50:55.064Z,16.68
2023-05-20T23:53:22.890Z,16.69
2023-05-20T23:55:50.281Z,16.47
2023-05-20T23:58:17.613Z,16.60
